createdAt,value
2016-08-08T17:41:08.763Z,23.07
2016-08-08T20:12:01.267Z,24.02
2016-08-08T20:12:27.154Z,24.14
2016-08-08T20:12:52.729Z,24.34
2016-08-08T20:13:18.300Z,24.57
2016-08-08T20:14:00.535Z,24.97
2016-08-08T20:14:26.084Z,25
2016-08-08T20:14:51.649Z,25
2016-08-08T20:15:17.476Z,25.07
2016-08-08T20:15:43.040Z,25.15
2016-08-08T20:16:08.655Z,25.1
2016-08-08T20:16:34.213Z,25.13
2016-08-08T20:16:59.787Z,25.12
2016-08-08T20:17:25.451Z,25.17
2016-08-08T20:17:51.042Z,25.12
2016-08-08T20:18:16.599Z,25.19
2016-08-08T20:18:42.166Z,25.25
2016-08-08T20:19:07.737Z,25.27
2016-08-08T20:19:33.303Z,25.35
2016-08-08T20:19:58.872Z,25.34
2016-08-08T20:20:24.492Z,25.38
2016-08-08T20:20:50.082Z,25.46
2016-08-08T20:21:15.652Z,25.52
2016-08-08T20:21:41.226Z,25.53
2016-08-08T20:22:06.792Z,25.56
2016-08-08T20:22:32.392Z,25.67
2016-08-08T20:22:57.951Z,25.77
2016-08-08T20:23:23.534Z,25.86
2016-08-08T20:23:49.109Z,26.01
2016-08-08T20:24:14.747Z,26.01
2016-08-08T20:24:40.315Z,26.04
2016-08-08T20:25:05.868Z,25.94
2016-08-08T20:25:31.421Z,25.86
2016-08-08T20:25:56.961Z,25.86
2016-08-08T20:26:22.523Z,25.94
2016-08-08T20:26:48.066Z,25.86
2016-08-08T20:27:13.653Z,25.83
2016-08-08T20:27:59.143Z,25.83
2016-08-08T20:28:24.722Z,25.9
2016-08-08T20:28:50.270Z,25.84
2016-08-08T20:29:15.846Z,25.86
2016-08-08T20:29:41.433Z,25.86
2016-08-08T20:30:07.007Z,25.84
2016-08-08T20:30:32.587Z,25.9
2016-08-08T20:31:23.718Z,25.99
2016-08-08T20:31:49.311Z,25.99
2016-08-08T20:32:14.893Z,25.89
2016-08-08T20:32:40.472Z,25.94
2016-08-08T20:33:06.053Z,25.89
2016-08-08T20:33:31.633Z,25.83
2016-08-08T20:33:57.233Z,25.84
2016-08-08T20:34:22.889Z,25.97
2016-08-08T20:34:48.446Z,26.04
2016-08-08T20:35:14.010Z,25.99
2016-08-08T20:35:59.479Z,26.06
2016-08-08T20:36:25.018Z,26.15
2016-08-08T20:36:50.553Z,26.12
2016-08-08T20:37:16.089Z,26.11
2016-08-08T20:37:41.675Z,26.24
2016-08-08T20:38:07.215Z,26.09
2016-08-08T20:38:32.855Z,26.08
2016-08-08T20:38:58.408Z,26.12
2016-08-08T20:39:24.072Z,26.21
2016-08-08T20:39:49.644Z,26.22
2016-08-08T20:40:15.217Z,26.2
2016-08-08T20:40:40.803Z,26.21
2016-08-08T20:41:06.369Z,26.24
2016-08-08T20:41:31.918Z,26.24
2016-08-08T20:41:57.491Z,26.15
2016-08-08T20:42:23.051Z,26.24
2016-08-08T20:42:48.611Z,26.22
2016-08-08T20:43:14.182Z,26.12
2016-08-08T20:43:39.728Z,26.22
2016-08-08T20:44:05.284Z,26.22
2016-08-08T20:44:30.958Z,26.22
2016-08-08T20:44:56.528Z,26.24
2016-08-08T20:45:22.056Z,26.2
2016-08-08T20:45:47.607Z,26.27
2016-08-08T20:46:13.166Z,26.18
2016-08-08T20:46:38.733Z,26.28
2016-08-08T20:47:04.295Z,26.2
2016-08-08T20:47:29.880Z,26.18
2016-08-08T20:47:55.450Z,26.2
2016-08-08T20:48:21.022Z,26.37
2016-08-08T20:48:46.638Z,26.28
2016-08-08T20:49:12.266Z,26.28
2016-08-08T20:49:37.877Z,26.21
2016-08-08T20:50:03.449Z,26.29
2016-08-08T20:50:28.999Z,26.29
2016-08-08T20:50:54.554Z,26.28
2016-08-08T20:51:20.145Z,26.25
2016-08-08T20:51:45.728Z,26.25
2016-08-08T20:52:11.273Z,26.29
2016-08-08T20:52:36.838Z,26.18
2016-08-08T20:53:02.502Z,26.22
2016-08-08T20:53:28.077Z,26.29
2016-08-08T20:53:53.626Z,26.28
2016-08-08T20:54:19.207Z,26.22
2016-08-08T20:54:44.798Z,26.25
2016-08-08T20:55:10.368Z,26.28
2016-08-08T20:55:35.926Z,26.32
2016-08-08T20:56:01.489Z,26.12
2016-08-08T20:56:27.048Z,26.18
2016-08-08T20:56:52.627Z,26.22
2016-08-08T20:57:18.208Z,26.25
2016-08-08T20:57:43.776Z,26.04
2016-08-08T20:58:09.339Z,25.9
2016-08-08T20:58:34.888Z,25.9
2016-08-08T20:59:00.451Z,25.89
2016-08-08T20:59:26.058Z,25.79
2016-08-08T20:59:51.627Z,25.86
2016-08-08T21:00:17.183Z,25.9
2016-08-08T21:00:42.756Z,25.9
2016-08-08T21:01:08.311Z,25.86
2016-08-08T21:01:33.858Z,25.89
2016-08-08T21:39:45.797Z,25.59
2016-08-08T21:40:11.361Z,25.46
2016-08-08T21:40:36.933Z,25.47
2016-08-08T21:41:02.495Z,25.44
2016-08-08T21:41:28.041Z,25.43
2016-08-08T21:41:53.607Z,25.43
2016-08-08T21:42:19.205Z,25.44
2016-08-08T21:42:44.799Z,25.52
2016-08-08T21:43:10.377Z,25.53
2016-08-08T21:43:35.944Z,25.57
2016-08-08T21:44:01.513Z,25.42
2016-08-08T21:44:27.098Z,25.61
2016-08-08T21:44:52.658Z,25.61
2016-08-08T21:45:18.281Z,25.57
2016-08-08T21:45:43.837Z,25.65
2016-08-08T21:46:09.396Z,25.61
2016-08-08T21:46:34.971Z,25.56
2016-08-08T21:47:00.553Z,25.71
2016-08-08T21:47:26.121Z,25.68
2016-08-08T21:47:51.680Z,25.62
2016-08-08T21:48:17.248Z,25.68
2016-08-08T21:48:42.904Z,25.72
2016-08-08T21:49:08.473Z,25.75
2016-08-08T21:49:34.042Z,25.68
2016-08-08T21:49:59.656Z,25.75
2016-08-08T21:50:25.277Z,25.75
2016-08-08T21:51:10.758Z,25.77
2016-08-08T21:51:36.314Z,25.84
2016-08-08T21:52:01.855Z,25.89
2016-08-08T21:52:27.436Z,25.82
2016-08-08T21:52:52.988Z,25.91
2016-08-08T21:53:18.552Z,25.86
2016-08-08T21:53:44.107Z,25.87
2016-08-08T21:54:09.659Z,25.9
2016-08-08T21:54:35.218Z,25.83
2016-08-08T21:55:00.782Z,25.86
2016-08-08T21:55:26.447Z,25.82
2016-08-08T21:55:52.005Z,25.93
2016-08-08T21:56:17.648Z,25.82
2016-08-08T21:56:43.243Z,25.86
2016-08-08T21:57:08.796Z,25.9
2016-08-08T21:57:34.354Z,25.87
2016-08-08T21:57:59.921Z,25.87
2016-08-08T21:58:25.464Z,25.93
2016-08-08T21:58:51.042Z,25.87
2016-08-08T21:59:16.615Z,25.94
2016-08-08T21:59:42.183Z,25.97
2016-08-08T22:00:07.763Z,25.99
2016-08-08T22:00:33.369Z,26.04
2016-08-08T22:00:58.935Z,25.97
2016-08-08T22:01:50.122Z,26.01
2016-08-08T22:02:15.705Z,25.94
2016-08-08T22:02:41.268Z,25.87
2016-08-08T22:03:06.825Z,26.02
2016-08-08T22:03:32.393Z,26.05
2016-08-08T22:03:57.980Z,26.01
2016-08-08T22:04:23.542Z,26.02
2016-08-08T22:04:49.115Z,26.04
2016-08-08T22:05:14.709Z,26.01
2016-08-08T22:05:40.321Z,26.04
2016-08-08T22:06:05.894Z,25.97
2016-08-08T22:06:31.502Z,25.97
2016-08-08T22:06:57.064Z,26.04
2016-08-08T22:07:22.625Z,25.99
2016-08-08T22:07:48.212Z,26.05
2016-08-08T22:08:13.794Z,26.05
2016-08-08T22:08:39.361Z,26.11
2016-08-08T22:09:05.006Z,26.05
2016-08-08T22:09:30.567Z,26.02
2016-08-08T22:09:56.140Z,26.17
2016-08-08T22:10:21.698Z,26.09
2016-08-08T22:10:47.273Z,26.02
2016-08-08T22:11:12.841Z,26.15
2016-08-08T22:11:38.477Z,26.12
2016-08-08T22:12:04.171Z,25.99
2016-08-08T22:12:29.745Z,25.99
2016-08-08T22:12:55.333Z,26.05
2016-08-08T22:13:20.907Z,26.04
2016-08-08T22:13:46.473Z,26.06
2016-08-08T22:14:12.054Z,25.99
2016-08-08T22:14:37.631Z,26.08
2016-08-08T22:15:03.212Z,26.06
2016-08-08T22:15:28.781Z,25.99
2016-08-08T22:15:54.365Z,26.04
2016-08-08T22:16:45.494Z,26.11
2016-08-08T22:17:11.044Z,26.09
2016-08-08T22:17:36.612Z,26.08
2016-08-08T22:18:02.184Z,26.11
2016-08-08T22:18:27.743Z,26.11
2016-08-08T22:18:53.307Z,26.11
2016-08-08T22:19:18.884Z,26.12
2016-08-08T22:19:44.462Z,26.09
2016-08-08T22:20:10.066Z,26.04
2016-08-08T22:20:35.634Z,26.01
2016-08-08T22:21:01.191Z,26.08
2016-08-08T22:21:26.753Z,26.06
2016-08-08T22:21:52.324Z,26.01
2016-08-08T22:22:17.887Z,26.05
2016-08-08T22:22:43.496Z,25.99
2016-08-08T22:23:09.161Z,26.04
2016-08-08T22:23:34.735Z,25.99
2016-08-08T22:24:00.310Z,26.06
2016-08-08T22:24:25.896Z,26.04
2016-08-08T22:24:51.463Z,26.11
2016-08-08T22:25:17.035Z,26.01
2016-08-08T22:25:42.617Z,26.11
2016-08-08T22:26:08.191Z,26.01
2016-08-08T22:26:33.777Z,26.11
2016-08-08T22:26:59.339Z,26.12
2016-08-08T22:27:24.915Z,26.02
2016-08-08T22:27:50.514Z,25.99
2016-08-08T22:28:16.096Z,26.09
2016-08-08T22:28:41.648Z,26.09
2016-08-08T22:29:07.265Z,26.12
2016-08-08T22:29:32.875Z,26.12
2016-08-08T22:29:58.504Z,26.11
2016-08-08T22:30:24.074Z,26.15
2016-08-08T22:30:49.702Z,25.99
2016-08-08T22:31:15.267Z,26.11
2016-08-08T22:31:40.847Z,26.04
